createdAt,value
2023-04-09T00:02:16.179Z,14.02
2023-04-09T00:05:02.251Z,15.40
2023-04-09T00:07:47.642Z,15.50
2023-04-09T00:10:32.813Z,15.60
2023-04-09T00:13:25.367Z,15.27
2023-04-09T00:16:17.193Z,14.70
2023-04-09T00:19:02.763Z,13.55
2023-04-09T00:21:48.404Z,13.50
2023-04-09T00:24:33.977Z,13.27
2023-04-09T00:27:19.268Z,13.15
2023-04-09T00:30:05.382Z,14.60
2023-04-09T00:32:50.551Z,14.75
2023-04-09T00:35:36.224Z,14.55
2023-04-09T00:38:21.746Z,15.57
2023-04-09T00:41:08.323Z,14.65
2023-04-09T00:43:56.305Z,15.32
2023-04-09T00:46:41.913Z,14.50
2023-04-09T00:49:27.610Z,14.98
2023-04-09T00:52:12.697Z,14.88
2023-04-09T00:55:01.174Z,15.23
2023-04-09T00:57:46.907Z,14.77
2023-04-09T01:00:32.244Z,15.95
2023-04-09T01:03:17.773Z,15.73
2023-04-09T01:06:22.304Z,14.43
2023-04-09T01:09:33.618Z,16.45
2023-04-09T01:12:45.012Z,13.52
2023-04-09T01:15:33.792Z,16.08
2023-04-09T01:18:39.213Z,15.77
2023-04-09T01:21:28.005Z,15.05
2023-04-09T01:24:22.990Z,15.20
2023-04-09T01:27:09.010Z,15.10
2023-04-09T01:29:55.483Z,16.13
2023-04-09T01:32:42.332Z,15.10
2023-04-09T01:35:28.966Z,14.90
2023-04-09T01:38:16.621Z,14.18
2023-04-09T01:41:03.954Z,15.30
2023-04-09T01:43:52.942Z,15.63
2023-04-09T01:46:39.983Z,14.93
2023-04-09T01:49:25.549Z,14.73
2023-04-09T01:52:11.481Z,13.57
2023-04-09T01:54:56.774Z,14.73
2023-04-09T01:57:42.369Z,13.68
2023-04-09T02:00:46.700Z,15.38
2023-04-09T02:03:39.776Z,14.45
2023-04-09T02:06:39.988Z,13.05
2023-04-09T02:09:29.555Z,14.15
2023-04-09T02:12:18.021Z,13.93
2023-04-09T02:15:04.043Z,14.93
2023-04-09T02:17:49.500Z,12.75
2023-04-09T02:20:34.747Z,12.40
2023-04-09T02:23:20.527Z,14.50
2023-04-09T02:26:05.634Z,13.73
2023-04-09T02:28:51.321Z,13.38
2023-04-09T02:31:37.166Z,14.52
2023-04-09T02:34:23.591Z,13.48
2023-04-09T02:37:08.925Z,13.82
2023-04-09T02:39:54.357Z,13.32
2023-04-09T02:42:39.676Z,13.55
2023-04-09T02:45:25.209Z,12.00
2023-04-09T02:48:10.542Z,13.20
2023-04-09T02:50:55.975Z,12.82
2023-04-09T02:53:41.190Z,12.18
2023-04-09T02:56:26.632Z,11.85
2023-04-09T02:59:12.126Z,12.40
2023-04-09T03:01:57.815Z,11.85
2023-04-09T03:04:43.278Z,13.52
2023-04-09T03:07:28.726Z,12.80
2023-04-09T03:10:14.058Z,13.48
2023-04-09T03:12:59.531Z,12.68
2023-04-09T03:15:45.120Z,13.15
2023-04-09T03:18:30.383Z,14.18
2023-04-09T03:21:16.152Z,15.57
2023-04-09T03:24:02.168Z,14.38
2023-04-09T03:26:47.557Z,13.85
2023-04-09T03:29:32.928Z,13.10
2023-04-09T03:32:19.179Z,13.70
2023-04-09T03:35:05.324Z,14.30
2023-04-09T03:37:50.381Z,15.63
2023-04-09T03:40:36.454Z,15.00
2023-04-09T03:43:22.039Z,14.05
2023-04-09T03:46:18.013Z,14.95
2023-04-09T03:49:03.501Z,14.57
2023-04-09T03:51:49.043Z,14.15
2023-04-09T03:54:34.707Z,15.32
2023-04-09T03:57:20.136Z,14.95
2023-04-09T04:00:06.396Z,14.07
2023-04-09T04:02:52.411Z,15.25
2023-04-09T04:05:37.774Z,14.95
2023-04-09T04:08:23.137Z,13.90
2023-04-09T04:11:08.361Z,12.75
2023-04-09T04:13:55.706Z,14.50
2023-04-09T04:16:41.322Z,12.32
2023-04-09T04:19:26.576Z,14.18
2023-04-09T04:22:12.123Z,13.23
2023-04-09T04:24:57.398Z,14.05
2023-04-09T04:27:43.248Z,13.00
2023-04-09T04:30:28.623Z,13.82
2023-04-09T04:33:14.043Z,13.95
2023-04-09T04:36:10.788Z,13.23
2023-04-09T04:38:56.150Z,13.05
2023-04-09T04:41:41.749Z,13.27
2023-04-09T04:44:26.959Z,13.45
2023-04-09T04:47:12.484Z,14.27
2023-04-09T04:49:58.322Z,15.88
2023-04-09T04:52:43.846Z,14.13
2023-04-09T04:55:29.299Z,15.55
2023-04-09T04:58:14.686Z,15.88
2023-04-09T05:01:00.512Z,14.63
2023-04-09T05:03:45.907Z,13.75
2023-04-09T05:06:31.488Z,14.50
2023-04-09T05:09:16.650Z,14.55
2023-04-09T05:12:02.453Z,17.38
2023-04-09T05:14:47.641Z,16.83
2023-04-09T05:17:33.052Z,16.58
2023-04-09T05:20:18.473Z,16.05
2023-04-09T05:23:03.861Z,15.98
2023-04-09T05:25:50.130Z,15.95
2023-04-09T05:28:35.572Z,15.35
2023-04-09T05:31:20.916Z,15.35
2023-04-09T05:34:06.621Z,16.65
2023-04-09T05:36:51.916Z,16.60
2023-04-09T05:39:37.336Z,15.27
2023-04-09T05:42:22.758Z,15.65
2023-04-09T05:45:09.078Z,15.40
2023-04-09T05:47:54.849Z,15.25
2023-04-09T05:50:51.478Z,15.00
2023-04-09T05:53:39.697Z,15.18
2023-04-09T05:56:25.199Z,14.63
2023-04-09T05:59:10.576Z,14.40
2023-04-09T06:01:56.134Z,16.25
2023-04-09T06:04:41.516Z,15.07
2023-04-09T06:07:27.246Z,16.73
2023-04-09T06:10:12.649Z,14.95
2023-04-09T06:12:57.915Z,16.00
2023-04-09T06:15:43.556Z,16.33
2023-04-09T06:18:31.856Z,16.05
2023-04-09T06:21:17.493Z,16.65
2023-04-09T06:24:03.449Z,15.82
2023-04-09T06:26:48.998Z,13.95
2023-04-09T06:29:34.442Z,15.85
2023-04-09T06:32:19.732Z,14.45
2023-04-09T06:35:05.727Z,16.38
2023-04-09T06:37:51.505Z,15.80
2023-04-09T06:40:39.673Z,16.38
2023-04-09T06:43:25.288Z,15.95
2023-04-09T06:46:10.864Z,15.43
2023-04-09T06:48:56.453Z,16.38
2023-04-09T06:51:42.215Z,14.80
2023-04-09T06:54:27.465Z,14.15
2023-04-09T06:57:14.146Z,14.32
2023-04-09T06:59:59.700Z,15.40
2023-04-09T07:02:45.808Z,14.43
2023-04-09T07:05:34.586Z,13.63
2023-04-09T07:08:23.238Z,15.57
2023-04-09T07:11:08.593Z,15.35
2023-04-09T07:13:54.141Z,17.40
2023-04-09T07:16:39.842Z,15.30
2023-04-09T07:19:25.989Z,14.70
2023-04-09T07:22:11.533Z,13.65
2023-04-09T07:24:57.048Z,14.70
2023-04-09T07:27:43.335Z,14.27
2023-04-09T07:30:28.565Z,13.30
2023-04-09T07:33:14.162Z,14.02
2023-04-09T07:36:00.756Z,14.18
2023-04-09T07:38:47.308Z,11.45
2023-04-09T07:41:32.963Z,13.35
2023-04-09T07:44:18.578Z,14.63
2023-04-09T07:47:05.796Z,14.52
2023-04-09T07:49:51.373Z,13.40
2023-04-09T07:52:37.020Z,12.93
2023-04-09T07:55:22.186Z,13.10
2023-04-09T07:58:07.637Z,13.30
2023-04-09T08:00:52.973Z,13.95
2023-04-09T08:03:38.526Z,12.80
2023-04-09T08:06:23.901Z,15.20
2023-04-09T08:09:09.135Z,14.70
2023-04-09T08:11:54.769Z,15.85
2023-04-09T08:14:40.131Z,14.60
2023-04-09T08:17:25.681Z,15.93
2023-04-09T08:20:12.343Z,15.95
2023-04-09T08:22:57.748Z,13.52
2023-04-09T08:25:43.096Z,14.50
2023-04-09T08:28:28.472Z,14.35
2023-04-09T08:31:14.314Z,14.55
2023-04-09T08:33:59.852Z,14.52
2023-04-09T08:36:49.669Z,12.90
2023-04-09T08:39:34.735Z,14.10
2023-04-09T08:42:21.865Z,13.30
2023-04-09T08:45:08.761Z,14.50
2023-04-09T08:47:54.091Z,13.65
2023-04-09T08:50:39.679Z,13.68
2023-04-09T08:53:25.385Z,13.55
2023-04-09T08:56:11.368Z,13.20
2023-04-09T08:58:56.745Z,12.77
2023-04-09T09:01:42.236Z,12.50
2023-04-09T09:04:50.339Z,12.65
2023-04-09T09:07:35.450Z,13.32
2023-04-09T09:10:21.228Z,12.07
2023-04-09T09:13:27.541Z,14.50
2023-04-09T09:16:15.135Z,12.40
2023-04-09T09:19:02.492Z,11.63
2023-04-09T09:21:58.645Z,11.63
2023-04-09T09:24:52.170Z,12.20
2023-04-09T09:27:40.458Z,11.25
2023-04-09T09:30:27.498Z,12.77
2023-04-09T09:33:13.721Z,11.30
2023-04-09T09:35:58.915Z,10.90
2023-04-09T09:38:58.355Z,11.98
2023-04-09T09:41:44.963Z,11.73
2023-04-09T09:44:33.808Z,11.05
2023-04-09T09:47:22.374Z,10.57
2023-04-09T09:50:08.214Z,10.63
2023-04-09T09:53:03.165Z,10.95
2023-04-09T09:55:52.589Z,10.20
2023-04-09T09:58:42.814Z,10.15
2023-04-09T10:01:28.317Z,9.35
2023-04-09T10:04:16.418Z,9.73
2023-04-09T10:07:04.241Z,9.80
2023-04-09T10:09:51.509Z,9.63
2023-04-09T10:12:37.287Z,9.20
2023-04-09T10:15:23.227Z,10.65
2023-04-09T10:18:08.981Z,9.23
2023-04-09T10:20:59.658Z,9.02
2023-04-09T10:23:48.227Z,9.55
2023-04-09T10:26:35.545Z,8.93
2023-04-09T10:29:28.674Z,8.60
2023-04-09T10:32:25.205Z,9.00
2023-04-09T10:35:11.469Z,8.50
2023-04-09T10:37:57.573Z,8.07
2023-04-09T10:40:51.072Z,8.27
2023-04-09T10:43:36.875Z,8.25
2023-04-09T10:46:29.169Z,9.02
2023-04-09T10:52:12.321Z,8.60
2023-04-09T10:54:57.763Z,8.02
2023-04-09T10:57:43.272Z,8.43
2023-04-09T11:00:28.652Z,8.20
2023-04-09T11:03:30.454Z,8.20
2023-04-09T11:06:20.741Z,8.38
2023-04-09T11:09:06.151Z,7.50
2023-04-09T11:11:54.719Z,8.43
2023-04-09T11:14:40.308Z,8.15
2023-04-09T11:17:26.019Z,7.70
2023-04-09T11:20:12.648Z,10.18
2023-04-09T11:22:59.680Z,7.28
2023-04-09T11:25:49.274Z,7.80
2023-04-09T11:28:35.492Z,7.22
2023-04-09T11:31:27.595Z,7.75
2023-04-09T11:34:13.548Z,8.02
2023-04-09T11:36:59.845Z,6.97
2023-04-09T11:39:46.239Z,7.07
2023-04-09T11:42:32.082Z,6.20
2023-04-09T11:45:18.605Z,6.93
2023-04-09T11:48:04.184Z,6.90
2023-04-09T11:50:50.715Z,6.75
2023-04-09T11:53:37.673Z,6.55
2023-04-09T11:56:23.258Z,7.15
2023-04-09T11:59:08.865Z,6.97
2023-04-09T12:01:54.213Z,6.28
2023-04-09T12:04:49.692Z,6.70
2023-04-09T12:07:35.326Z,6.07
2023-04-09T12:10:30.296Z,6.55
2023-04-09T12:13:16.701Z,6.40
2023-04-09T12:16:03.570Z,7.25
2023-04-09T12:18:50.731Z,6.85
2023-04-09T12:21:54.576Z,6.85
2023-04-09T12:24:39.822Z,6.35
2023-04-09T12:27:25.277Z,6.93
2023-04-09T12:30:11.466Z,7.20
2023-04-09T12:32:56.989Z,6.47
2023-04-09T12:35:42.334Z,6.78
2023-04-09T12:38:27.665Z,6.63
2023-04-09T12:41:13.378Z,6.55
2023-04-09T12:43:58.933Z,6.32
2023-04-09T12:46:44.744Z,6.25
2023-04-09T12:49:31.537Z,7.07
2023-04-09T12:52:18.544Z,6.82
2023-04-09T12:55:05.716Z,7.03
2023-04-09T12:57:51.306Z,6.03
2023-04-09T13:00:36.825Z,5.88
2023-04-09T13:03:22.843Z,6.88
2023-04-09T13:06:08.765Z,6.53
2023-04-09T13:08:54.245Z,6.50
2023-04-09T13:11:40.704Z,7.47
2023-04-09T13:14:26.069Z,6.85
2023-04-09T13:17:11.526Z,6.32
2023-04-09T13:19:57.166Z,6.75
2023-04-09T13:22:42.878Z,6.57
2023-04-09T13:25:28.600Z,6.70
2023-04-09T13:28:14.339Z,6.68
2023-04-09T13:30:59.465Z,6.80
2023-04-09T13:33:45.267Z,6.30
2023-04-09T13:36:31.608Z,6.53
2023-04-09T13:39:17.616Z,6.35
2023-04-09T13:42:10.095Z,6.43
2023-04-09T13:44:59.050Z,6.38
2023-04-09T13:47:46.233Z,6.00
2023-04-09T13:50:31.966Z,5.57
2023-04-09T13:53:17.747Z,6.35
2023-04-09T13:56:02.884Z,6.28
2023-04-09T13:58:48.138Z,6.07
2023-04-09T14:01:34.199Z,5.68
2023-04-09T14:04:19.555Z,5.75
2023-04-09T14:07:04.712Z,5.65
2023-04-09T14:09:51.330Z,6.97
2023-04-09T14:12:36.711Z,6.68
2023-04-09T14:15:22.628Z,6.60
2023-04-09T14:18:07.865Z,10.18
2023-04-09T14:20:53.299Z,7.80
2023-04-09T14:23:39.816Z,7.05
2023-04-09T14:26:26.555Z,7.30
2023-04-09T14:29:11.714Z,6.88
2023-04-09T14:31:57.395Z,6.88
2023-04-09T14:34:42.780Z,6.50
2023-04-09T14:37:28.255Z,6.13
2023-04-09T14:40:13.701Z,6.35
2023-04-09T14:42:59.974Z,6.63
2023-04-09T14:45:45.305Z,6.47
2023-04-09T14:48:30.802Z,6.32
2023-04-09T14:51:16.573Z,5.90
2023-04-09T14:54:01.755Z,6.93
2023-04-09T14:56:47.177Z,5.88
2023-04-09T14:59:32.392Z,6.20
2023-04-09T15:02:18.005Z,6.80
2023-04-09T15:05:03.787Z,5.90
2023-04-09T15:07:49.689Z,5.78
2023-04-09T15:10:36.997Z,6.15
2023-04-09T15:13:22.297Z,5.70
2023-04-09T15:16:07.986Z,5.95
2023-04-09T15:18:57.537Z,6.13
2023-04-09T15:21:43.192Z,5.72
2023-04-09T15:24:28.533Z,5.72
2023-04-09T15:27:14.090Z,5.93
2023-04-09T15:29:59.540Z,5.75
2023-04-09T15:32:44.902Z,6.15
2023-04-09T15:35:30.225Z,5.95
2023-04-09T15:38:17.112Z,5.45
2023-04-09T15:41:02.584Z,6.05
2023-04-09T15:43:47.840Z,6.28
2023-04-09T15:46:33.230Z,6.07
2023-04-09T15:49:19.728Z,6.40
2023-04-09T15:52:05.759Z,7.25
2023-04-09T15:54:51.234Z,6.70
2023-04-09T15:57:36.440Z,6.40
2023-04-09T16:00:24.083Z,6.75
2023-04-09T16:03:09.915Z,6.50
2023-04-09T16:05:58.010Z,6.18
2023-04-09T16:08:45.790Z,6.10
2023-04-09T16:11:31.235Z,6.32
2023-04-09T16:14:16.934Z,6.93
2023-04-09T16:17:02.758Z,6.32
2023-04-09T16:19:48.154Z,6.35
2023-04-09T16:22:34.123Z,6.43
2023-04-09T16:25:19.736Z,6.65
2023-04-09T16:28:05.249Z,6.38
2023-04-09T16:30:50.980Z,5.88
2023-04-09T16:33:36.318Z,5.22
2023-04-09T16:36:21.816Z,5.85
2023-04-09T16:39:07.692Z,6.60
2023-04-09T16:41:53.191Z,6.20
2023-04-09T16:44:38.866Z,6.82
2023-04-09T16:47:24.578Z,6.50
2023-04-09T16:50:12.099Z,6.40
2023-04-09T16:52:57.769Z,7.03
2023-04-09T16:55:44.893Z,7.50
2023-04-09T16:58:30.935Z,6.75
2023-04-09T17:01:16.380Z,7.05
2023-04-09T17:04:03.197Z,6.97
2023-04-09T17:06:49.742Z,6.43
2023-04-09T17:09:35.719Z,6.47
2023-04-09T17:12:21.636Z,6.55
2023-04-09T17:15:08.582Z,6.50
2023-04-09T17:17:54.694Z,7.20
2023-04-09T17:20:40.278Z,7.95
2023-04-09T17:23:25.851Z,7.35
2023-04-09T17:26:11.230Z,7.68
2023-04-09T17:28:57.039Z,7.93
2023-04-09T17:31:42.290Z,8.02
2023-04-09T17:34:28.235Z,8.82
2023-04-09T17:37:13.330Z,7.90
2023-04-09T17:39:59.005Z,7.95
2023-04-09T17:42:44.896Z,7.75
2023-04-09T17:45:30.430Z,8.77
2023-04-09T17:48:15.908Z,8.10
2023-04-09T17:51:01.492Z,8.35
2023-04-09T17:53:47.486Z,7.70
2023-04-09T17:56:35.431Z,7.30
2023-04-09T17:59:20.856Z,8.15
2023-04-09T18:02:07.372Z,8.10
2023-04-09T18:04:53.043Z,7.78
2023-04-09T18:07:38.887Z,7.60
2023-04-09T18:10:24.276Z,7.07
2023-04-09T18:13:09.911Z,6.38
2023-04-09T18:15:55.836Z,6.90
2023-04-09T18:18:41.507Z,7.82
2023-04-09T18:21:27.828Z,6.70
2023-04-09T18:24:13.532Z,6.63
2023-04-09T18:27:00.291Z,7.75
2023-04-09T18:29:46.213Z,7.22
2023-04-09T18:32:32.398Z,6.97
2023-04-09T18:35:18.749Z,6.43
2023-04-09T18:38:04.274Z,6.30
2023-04-09T18:40:49.813Z,6.45
2023-04-09T18:43:35.410Z,6.32
2023-04-09T18:46:20.861Z,6.95
2023-04-09T18:49:06.350Z,5.78
2023-04-09T18:51:51.766Z,6.55
2023-04-09T18:54:38.506Z,7.68
2023-04-09T18:57:23.788Z,7.03
2023-04-09T19:00:09.589Z,8.80
2023-04-09T19:02:55.356Z,8.15
2023-04-09T19:05:41.201Z,8.27
2023-04-09T19:08:27.315Z,9.32
2023-04-09T19:11:13.451Z,8.45
2023-04-09T19:13:58.377Z,9.20
2023-04-09T19:16:44.447Z,9.98
2023-04-09T19:19:30.116Z,10.63
2023-04-09T19:22:16.223Z,10.30
2023-04-09T19:25:01.720Z,9.55
2023-04-09T19:27:47.116Z,10.13
2023-04-09T19:30:32.462Z,9.57
2023-04-09T19:33:22.387Z,9.52
2023-04-09T19:36:08.201Z,8.57
2023-04-09T19:38:54.030Z,8.30
2023-04-09T19:41:39.908Z,9.02
2023-04-09T19:44:25.506Z,9.50
2023-04-09T19:47:11.016Z,8.07
2023-04-09T19:49:56.606Z,9.05
2023-04-09T19:52:42.075Z,9.55
2023-04-09T19:55:28.783Z,9.45
2023-04-09T19:58:13.894Z,11.10
2023-04-09T20:00:59.360Z,11.80
2023-04-09T20:03:44.747Z,15.25
2023-04-09T20:06:30.767Z,35.95
2023-04-09T20:09:17.192Z,17.92
2023-04-09T20:12:06.283Z,13.63
2023-04-09T20:14:51.785Z,14.32
2023-04-09T20:17:37.183Z,12.75
2023-04-09T20:20:22.589Z,8.98
2023-04-09T20:23:08.083Z,8.52
2023-04-09T20:25:56.767Z,8.80
2023-04-09T20:28:41.921Z,7.55
2023-04-09T20:31:27.843Z,7.88
2023-04-09T20:34:13.357Z,7.43
2023-04-09T20:36:58.786Z,7.38
2023-04-09T20:39:44.306Z,8.23
2023-04-09T20:42:29.587Z,7.75
2023-04-09T20:45:15.733Z,8.40
2023-04-09T20:48:01.544Z,7.65
2023-04-09T20:50:46.649Z,8.02
2023-04-09T20:53:32.277Z,8.82
2023-04-09T20:56:18.335Z,9.63
2023-04-09T20:59:03.576Z,8.52
2023-04-09T21:01:48.979Z,7.85
2023-04-09T21:04:34.294Z,8.38
2023-04-09T21:07:20.196Z,7.45
2023-04-09T21:10:06.343Z,8.70
2023-04-09T21:12:51.362Z,7.95
2023-04-09T21:15:36.681Z,7.45
2023-04-09T21:18:22.106Z,8.50
2023-04-09T21:21:08.284Z,9.40
2023-04-09T21:23:53.888Z,8.52
2023-04-09T21:26:50.827Z,8.45
2023-04-09T21:29:37.032Z,7.63
2023-04-09T21:32:22.410Z,7.85
2023-04-09T21:35:07.800Z,8.38
2023-04-09T21:37:53.782Z,7.93
2023-04-09T21:40:39.169Z,8.40
2023-04-09T21:43:25.022Z,8.27
2023-04-09T21:46:10.265Z,8.95
2023-04-09T21:48:55.574Z,7.45
2023-04-09T21:51:41.047Z,7.00
2023-04-09T21:54:26.187Z,7.53
2023-04-09T21:57:11.815Z,7.70
2023-04-09T21:59:57.233Z,8.77
2023-04-09T22:02:42.747Z,8.63
2023-04-09T22:05:28.982Z,9.13
2023-04-09T22:08:14.376Z,8.90
2023-04-09T22:10:59.668Z,9.82
2023-04-09T22:13:45.067Z,8.65
2023-04-09T22:16:30.385Z,8.55
2023-04-09T22:19:16.027Z,9.40
2023-04-09T22:22:01.438Z,9.15
2023-04-09T22:24:46.746Z,8.75
2023-04-09T22:27:32.600Z,9.38
2023-04-09T22:30:18.033Z,9.70
2023-04-09T22:33:03.631Z,9.13
2023-04-09T22:35:49.320Z,9.07
2023-04-09T22:38:35.300Z,9.30
2023-04-09T22:41:21.293Z,8.75
2023-04-09T22:44:06.686Z,9.70
2023-04-09T22:46:52.202Z,11.57
2023-04-09T22:49:37.534Z,10.77
2023-04-09T22:52:22.639Z,9.35
2023-04-09T22:55:10.070Z,10.18
2023-04-09T22:57:55.828Z,9.80
2023-04-09T23:00:41.226Z,10.07
2023-04-09T23:03:26.496Z,10.18
2023-04-09T23:06:11.914Z,10.82
2023-04-09T23:08:58.716Z,9.35
2023-04-09T23:11:43.941Z,10.55
2023-04-09T23:14:29.300Z,9.80
2023-04-09T23:17:14.696Z,9.30
2023-04-09T23:20:00.662Z,10.95
2023-04-09T23:22:47.410Z,9.20
2023-04-09T23:25:32.463Z,8.70
2023-04-09T23:28:17.945Z,9.82
2023-04-09T23:31:03.459Z,8.45
2023-04-09T23:33:48.648Z,8.90
2023-04-09T23:36:33.921Z,9.90
2023-04-09T23:39:19.245Z,9.98
2023-04-09T23:42:04.908Z,9.30
2023-04-09T23:44:50.481Z,9.60
2023-04-09T23:47:36.428Z,9.43
2023-04-09T23:50:23.091Z,9.38
2023-04-09T23:53:08.456Z,9.27
2023-04-09T23:55:53.829Z,9.68
2023-04-09T23:58:39.251Z,10.27
